sensor_id;sensor_type;location;lat;lon;timestamp;P1;durP1;ratioP1;P2;durP2;ratioP2
78183;SDS011;67442;44.570;18.610;2024-02-26T00:01:21;320.13;;;112.25;;
78183;SDS011;67442;44.570;18.610;2024-02-26T00:03:48;404.52;;;128.27;;
78183;SDS011;67442;44.570;18.610;2024-02-26T00:06:15;407.10;;;137.23;;
78183;SDS011;67442;44.570;18.610;2024-02-26T00:08:44;308.13;;;108.22;;
78183;SDS011;67442;44.570;18.610;2024-02-26T00:11:11;330.05;;;118.88;;
78183;SDS011;67442;44.570;18.610;2024-02-26T00:13:38;328.05;;;112.03;;
78183;SDS011;67442;44.570;18.610;2024-02-26T00:16:06;327.77;;;112.10;;
78183;SDS011;67442;44.570;18.610;2024-02-26T00:18:33;378.73;;;129.00;;
78183;SDS011;67442;44.570;18.610;2024-02-26T00:21:01;327.73;;;111.80;;
78183;SDS011;67442;44.570;18.610;2024-02-26T00:23:29;334.10;;;125.80;;
78183;SDS011;67442;44.570;18.610;2024-02-26T00:25:55;304.70;;;118.32;;
78183;SDS011;67442;44.570;18.610;2024-02-26T00:28:23;368.30;;;130.57;;
78183;SDS011;67442;44.570;18.610;2024-02-26T00:30:50;299.45;;;105.35;;
78183;SDS011;67442;44.570;18.610;2024-02-26T00:33:21;287.58;;;110.32;;
78183;SDS011;67442;44.570;18.610;2024-02-26T00:35:49;261.48;;;96.30;;
78183;SDS011;67442;44.570;18.610;2024-02-26T00:38:16;317.55;;;105.60;;
78183;SDS011;67442;44.570;18.610;2024-02-26T00:40:44;275.75;;;96.20;;
78183;SDS011;67442;44.570;18.610;2024-02-26T00:43:11;392.25;;;131.20;;
78183;SDS011;67442;44.570;18.610;2024-02-26T00:45:38;502.08;;;164.32;;
78183;SDS011;67442;44.570;18.610;2024-02-26T00:48:06;319.45;;;102.43;;
78183;SDS011;67442;44.570;18.610;2024-02-26T00:50:34;309.83;;;104.40;;
78183;SDS011;67442;44.570;18.610;2024-02-26T00:53:01;342.63;;;110.13;;
78183;SDS011;67442;44.570;18.610;2024-02-26T00:55:28;302.90;;;101.07;;
78183;SDS011;67442;44.570;18.610;2024-02-26T00:57:56;333.38;;;103.28;;
78183;SDS011;67442;44.570;18.610;2024-02-26T01:00:23;256.55;;;84.80;;
78183;SDS011;67442;44.570;18.610;2024-02-26T01:02:51;191.48;;;71.00;;
78183;SDS011;67442;44.570;18.610;2024-02-26T01:05:17;207.82;;;69.10;;
78183;SDS011;67442;44.570;18.610;2024-02-26T01:07:45;219.98;;;69.70;;
78183;SDS011;67442;44.570;18.610;2024-02-26T01:10:12;191.73;;;68.00;;
78183;SDS011;67442;44.570;18.610;2024-02-26T01:12:39;255.52;;;82.97;;
78183;SDS011;67442;44.570;18.610;2024-02-26T01:15:07;296.13;;;91.40;;
78183;SDS011;67442;44.570;18.610;2024-02-26T01:17:35;216.30;;;62.25;;
78183;SDS011;67442;44.570;18.610;2024-02-26T01:20:02;317.23;;;73.95;;
78183;SDS011;67442;44.570;18.610;2024-02-26T01:22:30;284.08;;;76.43;;
78183;SDS011;67442;44.570;18.610;2024-02-26T01:24:57;226.48;;;79.50;;
78183;SDS011;67442;44.570;18.610;2024-02-26T01:27:25;342.80;;;94.80;;
78183;SDS011;67442;44.570;18.610;2024-02-26T01:29:53;306.00;;;89.90;;
78183;SDS011;67442;44.570;18.610;2024-02-26T01:32:20;226.32;;;67.43;;
78183;SDS011;67442;44.570;18.610;2024-02-26T01:34:47;160.52;;;53.58;;
78183;SDS011;67442;44.570;18.610;2024-02-26T01:37:15;158.18;;;51.22;;
78183;SDS011;67442;44.570;18.610;2024-02-26T01:39:43;183.38;;;60.70;;
78183;SDS011;67442;44.570;18.610;2024-02-26T01:42:10;223.00;;;70.70;;
78183;SDS011;67442;44.570;18.610;2024-02-26T01:44:37;235.93;;;64.82;;
78183;SDS011;67442;44.570;18.610;2024-02-26T01:47:05;231.93;;;65.15;;
78183;SDS011;67442;44.570;18.610;2024-02-26T01:49:34;236.40;;;68.28;;
78183;SDS011;67442;44.570;18.610;2024-02-26T01:52:01;148.88;;;46.25;;
78183;SDS011;67442;44.570;18.610;2024-02-26T01:54:30;144.05;;;47.67;;
78183;SDS011;67442;44.570;18.610;2024-02-26T01:56:57;130.18;;;41.85;;
78183;SDS011;67442;44.570;18.610;2024-02-26T01:59:25;163.15;;;47.63;;
78183;SDS011;67442;44.570;18.610;2024-02-26T02:01:54;170.70;;;53.53;;
78183;SDS011;67442;44.570;18.610;2024-02-26T02:04:22;150.75;;;47.35;;
78183;SDS011;67442;44.570;18.610;2024-02-26T02:06:50;256.90;;;84.22;;
78183;SDS011;67442;44.570;18.610;2024-02-26T02:09:17;198.25;;;68.75;;
78183;SDS011;67442;44.570;18.610;2024-02-26T02:11:45;152.63;;;46.15;;
78183;SDS011;67442;44.570;18.610;2024-02-26T02:14:14;155.25;;;50.03;;
78183;SDS011;67442;44.570;18.610;2024-02-26T02:16:42;131.13;;;43.00;;
78183;SDS011;67442;44.570;18.610;2024-02-26T02:19:09;132.23;;;45.22;;
78183;SDS011;67442;44.570;18.610;2024-02-26T02:21:37;163.65;;;50.78;;
78183;SDS011;67442;44.570;18.610;2024-02-26T02:24:04;149.10;;;50.47;;
78183;SDS011;67442;44.570;18.610;2024-02-26T02:26:31;144.20;;;48.03;;
78183;SDS011;67442;44.570;18.610;2024-02-26T02:28:58;156.05;;;47.78;;
78183;SDS011;67442;44.570;18.610;2024-02-26T02:31:26;137.10;;;45.90;;
78183;SDS011;67442;44.570;18.610;2024-02-26T02:33:54;139.63;;;46.28;;
78183;SDS011;67442;44.570;18.610;2024-02-26T02:36:21;169.52;;;50.50;;
78183;SDS011;67442;44.570;18.610;2024-02-26T02:38:49;129.43;;;47.10;;
78183;SDS011;67442;44.570;18.610;2024-02-26T02:41:17;169.38;;;54.08;;
78183;SDS011;67442;44.570;18.610;2024-02-26T02:43:44;163.07;;;48.03;;
78183;SDS011;67442;44.570;18.610;2024-02-26T02:46:11;141.80;;;45.20;;
78183;SDS011;67442;44.570;18.610;2024-02-26T02:48:39;157.80;;;63.38;;
78183;SDS011;67442;44.570;18.610;2024-02-26T02:51:05;149.18;;;51.83;;
78183;SDS011;67442;44.570;18.610;2024-02-26T02:53:33;175.82;;;59.83;;
78183;SDS011;67442;44.570;18.610;2024-02-26T02:56:00;139.73;;;51.15;;
78183;SDS011;67442;44.570;18.610;2024-02-26T02:58:27;131.68;;;50.80;;
78183;SDS011;67442;44.570;18.610;2024-02-26T03:00:55;145.52;;;47.45;;
78183;SDS011;67442;44.570;18.610;2024-02-26T03:03:22;221.27;;;65.85;;
78183;SDS011;67442;44.570;18.610;2024-02-26T03:05:50;194.90;;;52.15;;
78183;SDS011;67442;44.570;18.610;2024-02-26T03:08:18;149.32;;;46.45;;
78183;SDS011;67442;44.570;18.610;2024-02-26T03:10:45;122.45;;;42.78;;
78183;SDS011;67442;44.570;18.610;2024-02-26T03:13:12;194.27;;;48.90;;
78183;SDS011;67442;44.570;18.610;2024-02-26T03:15:40;246.23;;;47.25;;
78183;SDS011;67442;44.570;18.610;2024-02-26T03:18:07;101.45;;;40.08;;
78183;SDS011;67442;44.570;18.610;2024-02-26T03:20:35;165.50;;;48.15;;
78183;SDS011;67442;44.570;18.610;2024-02-26T03:23:03;155.73;;;46.05;;
78183;SDS011;67442;44.570;18.610;2024-02-26T03:25:30;171.10;;;51.00;;
78183;SDS011;67442;44.570;18.610;2024-02-26T03:27:58;122.47;;;45.50;;
78183;SDS011;67442;44.570;18.610;2024-02-26T03:30:25;276.42;;;54.10;;
78183;SDS011;67442;44.570;18.610;2024-02-26T03:32:52;214.90;;;48.65;;
78183;SDS011;67442;44.570;18.610;2024-02-26T03:35:19;148.13;;;43.63;;
78183;SDS011;67442;44.570;18.610;2024-02-26T03:37:47;273.83;;;59.92;;
78183;SDS011;67442;44.570;18.610;2024-02-26T03:40:16;223.05;;;52.38;;
78183;SDS011;67442;44.570;18.610;2024-02-26T03:42:45;173.48;;;47.35;;
78183;SDS011;67442;44.570;18.610;2024-02-26T03:45:12;124.88;;;39.67;;
78183;SDS011;67442;44.570;18.610;2024-02-26T03:47:40;121.55;;;38.63;;
78183;SDS011;67442;44.570;18.610;2024-02-26T03:50:07;211.98;;;47.60;;
78183;SDS011;67442;44.570;18.610;2024-02-26T03:52:35;176.00;;;46.47;;
78183;SDS011;67442;44.570;18.610;2024-02-26T03:55:03;148.70;;;42.60;;
78183;SDS011;67442;44.570;18.610;2024-02-26T03:57:31;261.05;;;51.88;;
78183;SDS011;67442;44.570;18.610;2024-02-26T03:59:58;108.20;;;37.97;;
78183;SDS011;67442;44.570;18.610;2024-02-26T04:02:26;117.35;;;40.03;;
78183;SDS011;67442;44.570;18.610;2024-02-26T04:04:53;99.63;;;37.63;;
78183;SDS011;67442;44.570;18.610;2024-02-26T04:07:20;126.55;;;41.05;;
78183;SDS011;67442;44.570;18.610;2024-02-26T04:09:47;117.30;;;40.65;;
78183;SDS011;67442;44.570;18.610;2024-02-26T04:12:15;233.18;;;56.42;;
78183;SDS011;67442;44.570;18.610;2024-02-26T04:14:42;178.02;;;51.33;;
78183;SDS011;67442;44.570;18.610;2024-02-26T04:17:10;226.88;;;52.85;;
78183;SDS011;67442;44.570;18.610;2024-02-26T04:19:37;128.90;;;42.83;;
78183;SDS011;67442;44.570;18.610;2024-02-26T04:22:05;209.75;;;58.35;;
78183;SDS011;67442;44.570;18.610;2024-02-26T04:24:32;196.05;;;48.00;;
78183;SDS011;67442;44.570;18.610;2024-02-26T04:27:00;125.43;;;46.78;;
78183;SDS011;67442;44.570;18.610;2024-02-26T04:29:27;105.82;;;43.75;;
78183;SDS011;67442;44.570;18.610;2024-02-26T04:31:54;190.35;;;63.03;;
78183;SDS011;67442;44.570;18.610;2024-02-26T04:34:22;218.75;;;65.05;;
78183;SDS011;67442;44.570;18.610;2024-02-26T04:36:49;194.60;;;56.20;;
78183;SDS011;67442;44.570;18.610;2024-02-26T04:39:17;120.30;;;44.28;;
78183;SDS011;67442;44.570;18.610;2024-02-26T04:41:44;108.15;;;40.65;;
78183;SDS011;67442;44.570;18.610;2024-02-26T04:44:11;117.20;;;41.13;;
78183;SDS011;67442;44.570;18.610;2024-02-26T04:46:38;154.52;;;47.58;;
78183;SDS011;67442;44.570;18.610;2024-02-26T04:49:05;122.40;;;43.30;;
78183;SDS011;67442;44.570;18.610;2024-02-26T04:51:33;106.68;;;38.92;;
78183;SDS011;67442;44.570;18.610;2024-02-26T04:54:00;101.18;;;37.35;;
78183;SDS011;67442;44.570;18.610;2024-02-26T04:56:27;118.43;;;41.22;;
78183;SDS011;67442;44.570;18.610;2024-02-26T04:58:54;133.73;;;43.38;;
78183;SDS011;67442;44.570;18.610;2024-02-26T05:01:22;103.38;;;39.25;;
78183;SDS011;67442;44.570;18.610;2024-02-26T05:03:49;107.40;;;37.58;;
78183;SDS011;67442;44.570;18.610;2024-02-26T05:06:17;126.43;;;41.72;;
78183;SDS011;67442;44.570;18.610;2024-02-26T05:08:44;116.15;;;41.28;;
78183;SDS011;67442;44.570;18.610;2024-02-26T05:11:12;143.60;;;47.28;;
78183;SDS011;67442;44.570;18.610;2024-02-26T05:13:39;111.40;;;38.97;;
78183;SDS011;67442;44.570;18.610;2024-02-26T05:16:06;104.00;;;40.40;;
78183;SDS011;67442;44.570;18.610;2024-02-26T05:18:34;90.30;;;35.85;;
78183;SDS011;67442;44.570;18.610;2024-02-26T05:21:01;110.03;;;40.08;;
78183;SDS011;67442;44.570;18.610;2024-02-26T05:23:29;136.77;;;38.97;;
78183;SDS011;67442;44.570;18.610;2024-02-26T05:25:56;131.00;;;42.53;;
78183;SDS011;67442;44.570;18.610;2024-02-26T05:28:24;173.93;;;63.35;;
78183;SDS011;67442;44.570;18.610;2024-02-26T05:30:51;191.25;;;63.63;;
78183;SDS011;67442;44.570;18.610;2024-02-26T05:33:18;158.70;;;51.53;;
78183;SDS011;67442;44.570;18.610;2024-02-26T05:35:46;230.15;;;73.07;;
78183;SDS011;67442;44.570;18.610;2024-02-26T05:38:13;178.13;;;59.60;;
78183;SDS011;67442;44.570;18.610;2024-02-26T05:40:40;314.33;;;101.90;;
78183;SDS011;67442;44.570;18.610;2024-02-26T05:43:08;214.70;;;76.57;;
78183;SDS011;67442;44.570;18.610;2024-02-26T05:45:35;156.90;;;56.35;;
78183;SDS011;67442;44.570;18.610;2024-02-26T05:48:02;163.98;;;46.25;;
78183;SDS011;67442;44.570;18.610;2024-02-26T05:50:30;144.02;;;44.50;;
78183;SDS011;67442;44.570;18.610;2024-02-26T05:52:58;97.57;;;39.83;;
78183;SDS011;67442;44.570;18.610;2024-02-26T05:55:25;158.07;;;47.88;;
78183;SDS011;67442;44.570;18.610;2024-02-26T05:57:53;88.07;;;36.80;;
78183;SDS011;67442;44.570;18.610;2024-02-26T06:00:20;119.10;;;44.42;;
78183;SDS011;67442;44.570;18.610;2024-02-26T06:02:48;118.63;;;40.05;;
78183;SDS011;67442;44.570;18.610;2024-02-26T06:05:16;146.30;;;49.78;;
78183;SDS011;67442;44.570;18.610;2024-02-26T06:07:43;389.40;;;163.50;;
78183;SDS011;67442;44.570;18.610;2024-02-26T06:10:11;352.83;;;139.93;;
78183;SDS011;67442;44.570;18.610;2024-02-26T06:12:39;197.45;;;69.18;;
78183;SDS011;67442;44.570;18.610;2024-02-26T06:15:06;102.30;;;40.70;;
78183;SDS011;67442;44.570;18.610;2024-02-26T06:17:34;141.05;;;48.50;;
78183;SDS011;67442;44.570;18.610;2024-02-26T06:20:02;243.38;;;77.68;;
78183;SDS011;67442;44.570;18.610;2024-02-26T06:22:31;277.70;;;83.25;;
78183;SDS011;67442;44.570;18.610;2024-02-26T06:24:59;282.15;;;91.32;;
78183;SDS011;67442;44.570;18.610;2024-02-26T06:27:26;178.35;;;62.08;;
78183;SDS011;67442;44.570;18.610;2024-02-26T06:29:54;348.20;;;139.15;;
78183;SDS011;67442;44.570;18.610;2024-02-26T06:32:21;207.05;;;81.93;;
78183;SDS011;67442;44.570;18.610;2024-02-26T06:34:49;173.55;;;70.40;;
78183;SDS011;67442;44.570;18.610;2024-02-26T06:37:15;84.93;;;33.30;;
78183;SDS011;67442;44.570;18.610;2024-02-26T06:39:43;83.07;;;33.25;;
78183;SDS011;67442;44.570;18.610;2024-02-26T06:42:10;129.23;;;45.47;;
78183;SDS011;67442;44.570;18.610;2024-02-26T06:44:37;180.63;;;49.25;;
78183;SDS011;67442;44.570;18.610;2024-02-26T06:47:05;153.35;;;53.30;;
78183;SDS011;67442;44.570;18.610;2024-02-26T06:49:33;133.15;;;46.97;;
78183;SDS011;67442;44.570;18.610;2024-02-26T06:52:00;128.45;;;48.83;;
78183;SDS011;67442;44.570;18.610;2024-02-26T06:54:28;123.82;;;45.42;;
78183;SDS011;67442;44.570;18.610;2024-02-26T06:56:55;143.57;;;48.08;;
78183;SDS011;67442;44.570;18.610;2024-02-26T06:59:23;101.35;;;40.85;;
78183;SDS011;67442;44.570;18.610;2024-02-26T07:01:50;108.78;;;41.22;;
78183;SDS011;67442;44.570;18.610;2024-02-26T07:04:18;124.03;;;42.40;;
78183;SDS011;67442;44.570;18.610;2024-02-26T07:06:45;101.03;;;43.05;;
78183;SDS011;67442;44.570;18.610;2024-02-26T07:09:13;107.03;;;40.33;;
78183;SDS011;67442;44.570;18.610;2024-02-26T07:11:39;94.85;;;38.72;;
78183;SDS011;67442;44.570;18.610;2024-02-26T07:14:10;106.50;;;41.83;;
78183;SDS011;67442;44.570;18.610;2024-02-26T07:16:37;130.35;;;51.13;;
78183;SDS011;67442;44.570;18.610;2024-02-26T07:19:04;152.63;;;58.58;;
78183;SDS011;67442;44.570;18.610;2024-02-26T07:21:31;163.82;;;70.75;;
78183;SDS011;67442;44.570;18.610;2024-02-26T07:23:59;152.18;;;61.17;;
78183;SDS011;67442;44.570;18.610;2024-02-26T07:26:27;165.57;;;62.00;;
78183;SDS011;67442;44.570;18.610;2024-02-26T07:28:56;128.75;;;55.63;;
78183;SDS011;67442;44.570;18.610;2024-02-26T07:31:23;126.45;;;50.63;;
78183;SDS011;67442;44.570;18.610;2024-02-26T07:33:51;126.90;;;48.33;;
78183;SDS011;67442;44.570;18.610;2024-02-26T07:36:18;161.70;;;50.30;;
78183;SDS011;67442;44.570;18.610;2024-02-26T07:38:44;130.35;;;50.17;;
78183;SDS011;67442;44.570;18.610;2024-02-26T07:41:12;109.85;;;44.55;;
78183;SDS011;67442;44.570;18.610;2024-02-26T07:43:40;111.50;;;41.05;;
78183;SDS011;67442;44.570;18.610;2024-02-26T07:46:07;95.70;;;38.63;;
78183;SDS011;67442;44.570;18.610;2024-02-26T07:48:34;72.85;;;33.38;;
78183;SDS011;67442;44.570;18.610;2024-02-26T07:51:01;69.93;;;33.30;;
78183;SDS011;67442;44.570;18.610;2024-02-26T07:53:29;83.53;;;39.33;;
78183;SDS011;67442;44.570;18.610;2024-02-26T07:55:56;128.07;;;56.95;;
78183;SDS011;67442;44.570;18.610;2024-02-26T07:58:23;125.68;;;49.20;;
78183;SDS011;67442;44.570;18.610;2024-02-26T08:00:51;153.50;;;59.50;;
78183;SDS011;67442;44.570;18.610;2024-02-26T08:03:18;136.20;;;62.55;;
78183;SDS011;67442;44.570;18.610;2024-02-26T08:05:46;126.10;;;62.30;;
78183;SDS011;67442;44.570;18.610;2024-02-26T08:08:14;175.93;;;62.95;;
78183;SDS011;67442;44.570;18.610;2024-02-26T08:10:41;280.73;;;146.88;;
78183;SDS011;67442;44.570;18.610;2024-02-26T08:13:08;126.38;;;61.72;;
78183;SDS011;67442;44.570;18.610;2024-02-26T08:15:35;96.28;;;46.78;;
78183;SDS011;67442;44.570;18.610;2024-02-26T08:18:03;93.47;;;46.50;;
78183;SDS011;67442;44.570;18.610;2024-02-26T08:20:35;110.82;;;57.17;;
78183;SDS011;67442;44.570;18.610;2024-02-26T08:23:03;106.53;;;52.22;;
78183;SDS011;67442;44.570;18.610;2024-02-26T08:25:30;99.38;;;49.28;;
78183;SDS011;67442;44.570;18.610;2024-02-26T08:27:57;106.75;;;49.30;;
78183;SDS011;67442;44.570;18.610;2024-02-26T08:30:24;104.72;;;51.42;;
78183;SDS011;67442;44.570;18.610;2024-02-26T08:32:51;66.97;;;32.80;;
78183;SDS011;67442;44.570;18.610;2024-02-26T08:35:20;78.72;;;39.30;;
78183;SDS011;67442;44.570;18.610;2024-02-26T08:37:47;86.40;;;42.90;;
78183;SDS011;67442;44.570;18.610;2024-02-26T08:40:15;97.50;;;49.30;;
78183;SDS011;67442;44.570;18.610;2024-02-26T08:42:42;73.47;;;40.30;;
78183;SDS011;67442;44.570;18.610;2024-02-26T08:45:10;86.93;;;45.13;;
78183;SDS011;67442;44.570;18.610;2024-02-26T08:47:38;61.20;;;33.95;;
78183;SDS011;67442;44.570;18.610;2024-02-26T08:50:05;104.15;;;52.95;;
78183;SDS011;67442;44.570;18.610;2024-02-26T08:52:32;110.25;;;58.67;;
78183;SDS011;67442;44.570;18.610;2024-02-26T08:54:59;150.07;;;69.55;;
78183;SDS011;67442;44.570;18.610;2024-02-26T08:57:27;113.93;;;58.47;;
78183;SDS011;67442;44.570;18.610;2024-02-26T08:59:54;115.88;;;55.78;;
78183;SDS011;67442;44.570;18.610;2024-02-26T09:02:22;133.50;;;60.67;;
78183;SDS011;67442;44.570;18.610;2024-02-26T09:04:49;103.78;;;50.67;;
78183;SDS011;67442;44.570;18.610;2024-02-26T09:07:19;104.72;;;49.15;;
78183;SDS011;67442;44.570;18.610;2024-02-26T09:09:46;68.22;;;33.92;;
78183;SDS011;67442;44.570;18.610;2024-02-26T09:12:13;56.35;;;29.17;;
78183;SDS011;67442;44.570;18.610;2024-02-26T09:14:40;76.82;;;36.67;;
78183;SDS011;67442;44.570;18.610;2024-02-26T09:17:08;84.93;;;46.35;;
78183;SDS011;67442;44.570;18.610;2024-02-26T09:19:35;55.88;;;27.95;;
78183;SDS011;67442;44.570;18.610;2024-02-26T09:22:03;54.38;;;29.73;;
78183;SDS011;67442;44.570;18.610;2024-02-26T09:24:31;64.22;;;30.17;;
78183;SDS011;67442;44.570;18.610;2024-02-26T09:26:59;76.63;;;34.63;;
78183;SDS011;67442;44.570;18.610;2024-02-26T09:29:26;83.93;;;38.08;;
78183;SDS011;67442;44.570;18.610;2024-02-26T09:31:54;74.07;;;37.78;;
78183;SDS011;67442;44.570;18.610;2024-02-26T09:34:22;83.38;;;41.50;;
78183;SDS011;67442;44.570;18.610;2024-02-26T09:36:49;74.55;;;36.42;;
78183;SDS011;67442;44.570;18.610;2024-02-26T09:39:16;56.10;;;29.45;;
78183;SDS011;67442;44.570;18.610;2024-02-26T09:41:47;58.72;;;29.83;;
78183;SDS011;67442;44.570;18.610;2024-02-26T09:44:15;53.83;;;28.35;;
78183;SDS011;67442;44.570;18.610;2024-02-26T09:46:49;85.55;;;51.40;;
78183;SDS011;67442;44.570;18.610;2024-02-26T09:49:19;189.40;;;98.65;;
78183;SDS011;67442;44.570;18.610;2024-02-26T09:51:47;120.88;;;64.15;;
78183;SDS011;67442;44.570;18.610;2024-02-26T09:54:16;99.10;;;57.13;;
78183;SDS011;67442;44.570;18.610;2024-02-26T09:56:43;133.13;;;76.15;;
78183;SDS011;67442;44.570;18.610;2024-02-26T09:59:13;118.03;;;63.30;;
78183;SDS011;67442;44.570;18.610;2024-02-26T10:01:42;157.77;;;76.60;;
78183;SDS011;67442;44.570;18.610;2024-02-26T10:04:10;132.30;;;73.35;;
78183;SDS011;67442;44.570;18.610;2024-02-26T10:06:38;132.93;;;74.65;;
78183;SDS011;67442;44.570;18.610;2024-02-26T10:09:05;283.77;;;90.25;;
78183;SDS011;67442;44.570;18.610;2024-02-26T10:11:35;142.38;;;74.03;;
78183;SDS011;67442;44.570;18.610;2024-02-26T10:14:02;88.65;;;38.72;;
78183;SDS011;67442;44.570;18.610;2024-02-26T10:16:30;47.10;;;24.63;;
78183;SDS011;67442;44.570;18.610;2024-02-26T10:18:57;69.30;;;37.92;;
78183;SDS011;67442;44.570;18.610;2024-02-26T10:21:25;81.63;;;40.53;;
78183;SDS011;67442;44.570;18.610;2024-02-26T10:23:52;50.70;;;30.70;;
78183;SDS011;67442;44.570;18.610;2024-02-26T10:26:20;86.80;;;46.38;;
78183;SDS011;67442;44.570;18.610;2024-02-26T10:28:47;65.03;;;32.55;;
78183;SDS011;67442;44.570;18.610;2024-02-26T10:31:15;71.53;;;36.03;;
78183;SDS011;67442;44.570;18.610;2024-02-26T10:33:42;43.78;;;22.13;;
78183;SDS011;67442;44.570;18.610;2024-02-26T10:36:10;44.50;;;20.40;;
78183;SDS011;67442;44.570;18.610;2024-02-26T10:38:37;36.42;;;18.25;;
78183;SDS011;67442;44.570;18.610;2024-02-26T10:41:05;42.17;;;17.00;;
78183;SDS011;67442;44.570;18.610;2024-02-26T10:43:34;32.42;;;15.05;;
78183;SDS011;67442;44.570;18.610;2024-02-26T10:46:01;34.40;;;14.90;;
78183;SDS011;67442;44.570;18.610;2024-02-26T10:48:29;17.25;;;7.95;;
78183;SDS011;67442;44.570;18.610;2024-02-26T10:50:56;44.10;;;20.83;;
78183;SDS011;67442;44.570;18.610;2024-02-26T10:53:26;40.03;;;16.42;;
78183;SDS011;67442;44.570;18.610;2024-02-26T10:55:57;21.27;;;9.93;;
78183;SDS011;67442;44.570;18.610;2024-02-26T10:58:26;42.08;;;17.50;;
78183;SDS011;67442;44.570;18.610;2024-02-26T11:00:54;40.00;;;19.10;;
78183;SDS011;67442;44.570;18.610;2024-02-26T11:03:24;76.07;;;21.65;;
78183;SDS011;67442;44.570;18.610;2024-02-26T11:05:51;31.77;;;12.73;;
78183;SDS011;67442;44.570;18.610;2024-02-26T11:08:19;150.90;;;69.30;;
78183;SDS011;67442;44.570;18.610;2024-02-26T11:10:47;18.13;;;8.80;;
78183;SDS011;67442;44.570;18.610;2024-02-26T11:13:18;17.50;;;6.75;;
78183;SDS011;67442;44.570;18.610;2024-02-26T11:15:49;16.00;;;7.50;;
78183;SDS011;67442;44.570;18.610;2024-02-26T11:18:16;31.27;;;6.75;;
78183;SDS011;67442;44.570;18.610;2024-02-26T11:20:45;25.63;;;6.10;;
78183;SDS011;67442;44.570;18.610;2024-02-26T11:23:13;17.73;;;6.97;;
78183;SDS011;67442;44.570;18.610;2024-02-26T11:25:44;12.15;;;6.03;;
78183;SDS011;67442;44.570;18.610;2024-02-26T11:28:13;27.92;;;11.85;;
78183;SDS011;67442;44.570;18.610;2024-02-26T11:30:46;16.25;;;6.68;;
78183;SDS011;67442;44.570;18.610;2024-02-26T11:33:14;20.88;;;8.88;;
78183;SDS011;67442;44.570;18.610;2024-02-26T11:35:41;14.32;;;6.90;;
78183;SDS011;67442;44.570;18.610;2024-02-26T11:38:08;60.75;;;26.40;;
78183;SDS011;67442;44.570;18.610;2024-02-26T11:40:44;26.08;;;11.07;;
78183;SDS011;67442;44.570;18.610;2024-02-26T11:43:11;11.32;;;5.78;;
78183;SDS011;67442;44.570;18.610;2024-02-26T11:48:14;12.45;;;5.28;;
78183;SDS011;67442;44.570;18.610;2024-02-26T11:50:41;15.20;;;6.03;;
78183;SDS011;67442;44.570;18.610;2024-02-26T11:58:41;18.60;;;8.27;;
78183;SDS011;67442;44.570;18.610;2024-02-26T12:03:54;12.60;;;6.15;;
78183;SDS011;67442;44.570;18.610;2024-02-26T12:06:21;14.15;;;6.25;;
78183;SDS011;67442;44.570;18.610;2024-02-26T12:08:49;23.33;;;11.30;;
78183;SDS011;67442;44.570;18.610;2024-02-26T12:11:16;25.45;;;8.25;;
78183;SDS011;67442;44.570;18.610;2024-02-26T12:13:45;18.35;;;5.47;;
78183;SDS011;67442;44.570;18.610;2024-02-26T12:16:36;17.17;;;6.32;;
78183;SDS011;67442;44.570;18.610;2024-02-26T12:19:06;23.80;;;9.55;;
78183;SDS011;67442;44.570;18.610;2024-02-26T12:21:37;22.50;;;8.68;;
78183;SDS011;67442;44.570;18.610;2024-02-26T12:24:11;16.15;;;6.55;;
78183;SDS011;67442;44.570;18.610;2024-02-26T12:26:38;12.93;;;6.25;;
78183;SDS011;67442;44.570;18.610;2024-02-26T12:29:05;12.65;;;5.30;;
78183;SDS011;67442;44.570;18.610;2024-02-26T12:31:32;15.23;;;6.95;;
78183;SDS011;67442;44.570;18.610;2024-02-26T12:34:03;13.32;;;6.63;;
78183;SDS011;67442;44.570;18.610;2024-02-26T12:36:30;18.85;;;6.72;;
78183;SDS011;67442;44.570;18.610;2024-02-26T12:38:58;19.48;;;7.28;;
78183;SDS011;67442;44.570;18.610;2024-02-26T12:41:26;9.32;;;5.55;;
78183;SDS011;67442;44.570;18.610;2024-02-26T12:43:53;13.45;;;6.28;;
78183;SDS011;67442;44.570;18.610;2024-02-26T12:46:22;19.92;;;7.05;;
78183;SDS011;67442;44.570;18.610;2024-02-26T12:48:49;39.70;;;14.80;;
78183;SDS011;67442;44.570;18.610;2024-02-26T12:51:16;33.80;;;10.85;;
78183;SDS011;67442;44.570;18.610;2024-02-26T12:53:43;30.00;;;10.43;;
78183;SDS011;67442;44.570;18.610;2024-02-26T12:56:12;23.80;;;6.85;;
78183;SDS011;67442;44.570;18.610;2024-02-26T12:58:39;24.33;;;9.63;;
78183;SDS011;67442;44.570;18.610;2024-02-26T13:01:06;14.15;;;5.95;;
78183;SDS011;67442;44.570;18.610;2024-02-26T13:03:34;52.65;;;16.77;;
78183;SDS011;67442;44.570;18.610;2024-02-26T13:06:02;105.88;;;26.80;;
78183;SDS011;67442;44.570;18.610;2024-02-26T13:08:31;23.00;;;11.68;;
78183;SDS011;67442;44.570;18.610;2024-02-26T13:10:59;19.85;;;7.00;;
78183;SDS011;67442;44.570;18.610;2024-02-26T13:13:26;18.77;;;7.90;;
78183;SDS011;67442;44.570;18.610;2024-02-26T13:16:03;19.42;;;7.07;;
78183;SDS011;67442;44.570;18.610;2024-02-26T13:18:32;18.48;;;6.70;;
78183;SDS011;67442;44.570;18.610;2024-02-26T13:21:09;20.92;;;6.82;;
78183;SDS011;67442;44.570;18.610;2024-02-26T13:23:37;21.73;;;6.88;;
78183;SDS011;67442;44.570;18.610;2024-02-26T13:26:04;20.27;;;7.35;;
78183;SDS011;67442;44.570;18.610;2024-02-26T13:28:32;15.68;;;7.18;;
78183;SDS011;67442;44.570;18.610;2024-02-26T13:30:58;19.00;;;6.70;;
78183;SDS011;67442;44.570;18.610;2024-02-26T13:33:27;15.68;;;6.72;;
78183;SDS011;67442;44.570;18.610;2024-02-26T13:35:56;22.52;;;7.32;;
78183;SDS011;67442;44.570;18.610;2024-02-26T13:38:23;16.95;;;6.20;;
78183;SDS011;67442;44.570;18.610;2024-02-26T13:40:50;24.45;;;7.53;;
78183;SDS011;67442;44.570;18.610;2024-02-26T13:43:18;18.50;;;7.35;;
78183;SDS011;67442;44.570;18.610;2024-02-26T13:45:45;14.95;;;6.90;;
78183;SDS011;67442;44.570;18.610;2024-02-26T13:48:12;13.77;;;6.22;;
78183;SDS011;67442;44.570;18.610;2024-02-26T13:50:40;13.70;;;5.88;;
78183;SDS011;67442;44.570;18.610;2024-02-26T13:53:08;17.60;;;7.82;;
78183;SDS011;67442;44.570;18.610;2024-02-26T13:55:36;10.93;;;5.57;;
78183;SDS011;67442;44.570;18.610;2024-02-26T13:58:05;81.45;;;34.92;;
78183;SDS011;67442;44.570;18.610;2024-02-26T14:00:32;25.13;;;10.23;;
78183;SDS011;67442;44.570;18.610;2024-02-26T14:03:00;18.80;;;6.75;;
78183;SDS011;67442;44.570;18.610;2024-02-26T14:05:27;18.40;;;7.28;;
78183;SDS011;67442;44.570;18.610;2024-02-26T14:07:55;17.13;;;7.55;;
78183;SDS011;67442;44.570;18.610;2024-02-26T14:10:23;13.82;;;6.35;;
78183;SDS011;67442;44.570;18.610;2024-02-26T14:12:50;22.05;;;8.18;;
78183;SDS011;67442;44.570;18.610;2024-02-26T14:15:17;21.35;;;6.65;;
78183;SDS011;67442;44.570;18.610;2024-02-26T14:17:49;20.65;;;7.70;;